Time;durP1;ratioP1;P1;durP2;ratioP2;P2;SDS_P1;SDS_P2;PMS_P1;PMS_P2;Temp;Humidity;BMP_temperature;BMP_pressure;BME280_temperature;BME280_humidity;BME280_pressure;Samples;Min_cycle;Max_cycle;Signal;HPM_P1;HPM_P2
2023/04/21 00:00:08;;;;;;;31.90;21.90;;;9.00;99.90;;;;;;4993412;28;20069;-77
2023/04/21 00:02:38;;;;;;;29.13;21.33;;;9.10;99.90;;;;;;4994456;28;20095;-77
2023/04/21 00:05:06;;;;;;;28.03;20.47;;;9.10;99.90;;;;;;5012972;28;20481;-77
2023/04/21 00:07:32;;;;;;;32.57;21.03;;;9.10;99.90;;;;;;5018030;28;20073;-78
2023/04/21 00:09:58;;;;;;;28.40;19.63;;;9.00;99.90;;;;;;5016241;28;20046;-77
2023/04/21 00:12:24;;;;;;;28.00;20.07;;;9.10;99.90;;;;;;5012760;28;20042;-77
2023/04/21 00:14:50;;;;;;;27.93;19.07;;;9.10;99.90;;;;;;4997930;28;20058;-77
2023/04/21 00:17:15;;;;;;;30.23;19.17;;;9.10;99.90;;;;;;4982438;28;20375;-77
2023/04/21 00:19:41;;;;;;;27.07;20.77;;;9.10;99.90;;;;;;4998319;28;20045;-77
2023/04/21 00:22:10;;;;;;;32.50;18.90;;;9.10;99.90;;;;;;4998026;28;20052;-77
2023/04/21 00:24:36;;;;;;;26.70;18.90;;;9.10;99.90;;;;;;5009588;28;20104;-78
2023/04/21 00:27:02;;;;;;;27.80;18.47;;;9.00;99.90;;;;;;4998082;28;20509;-77
2023/04/21 00:29:28;;;;;;;25.57;18.97;;;9.00;99.90;;;;;;5013290;28;20060;-78
2023/04/21 00:31:54;;;;;;;25.53;18.23;;;9.00;99.90;;;;;;5000624;28;20528;-77
2023/04/21 00:34:20;;;;;;;26.37;18.70;;;9.00;99.90;;;;;;4998545;28;20182;-77
2023/04/21 00:36:46;;;;;;;25.33;18.30;;;9.00;99.90;;;;;;4996568;28;20857;-77
2023/04/21 00:39:13;;;;;;;29.63;18.70;;;9.00;99.90;;;;;;4997848;28;20065;-77
2023/04/21 00:41:39;;;;;;;24.60;16.97;;;9.00;99.90;;;;;;5004984;28;20531;-76
2023/04/21 00:44:06;;;;;;;29.13;17.87;;;9.00;99.90;;;;;;4987766;28;20041;-77
2023/04/21 00:46:33;;;;;;;23.13;17.30;;;8.90;99.90;;;;;;4991425;28;20042;-76
2023/04/21 00:49:02;;;;;;;24.17;17.60;;;8.90;99.90;;;;;;5009867;28;20441;-77
2023/04/21 00:51:28;;;;;;;26.20;17.77;;;8.90;99.90;;;;;;5010898;28;20737;-77
2023/04/21 00:53:55;;;;;;;24.67;17.67;;;8.90;99.90;;;;;;5013155;28;20042;-77
2023/04/21 00:56:21;;;;;;;28.13;17.53;;;8.90;99.90;;;;;;5010769;28;20057;-77
2023/04/21 00:58:48;;;;;;;24.17;17.43;;;8.90;99.90;;;;;;5016544;28;20792;-77
2023/04/21 01:01:13;;;;;;;26.87;17.87;;;8.90;99.90;;;;;;5013626;28;20068;-77
2023/04/21 01:03:40;;;;;;;24.63;16.90;;;8.90;99.90;;;;;;4997203;28;20371;-76
2023/04/21 01:06:06;;;;;;;26.53;17.37;;;8.80;99.90;;;;;;5013756;28;20513;-77
2023/04/21 01:08:32;;;;;;;23.83;17.03;;;8.80;99.90;;;;;;4994979;28;20184;-77
2023/04/21 01:10:58;;;;;;;23.03;16.70;;;8.80;99.90;;;;;;5014241;28;20117;-77
2023/04/21 01:13:23;;;;;;;24.67;16.60;;;8.80;99.90;;;;;;4998293;28;20139;-77
2023/04/21 01:15:49;;;;;;;25.97;17.10;;;8.80;99.90;;;;;;5003530;28;20068;-77
2023/04/21 01:18:17;;;;;;;24.37;17.00;;;8.80;99.90;;;;;;4982198;28;20065;-78
2023/04/21 01:20:43;;;;;;;23.77;17.40;;;8.80;99.90;;;;;;4999283;28;20489;-77
2023/04/21 01:23:09;;;;;;;24.80;16.87;;;8.80;99.90;;;;;;4992076;28;20413;-78
2023/04/21 01:25:35;;;;;;;27.13;17.83;;;8.70;99.90;;;;;;5008169;28;20092;-77
2023/04/21 01:28:02;;;;;;;23.27;16.47;;;8.70;99.90;;;;;;5002338;28;20034;-77
2023/04/21 01:30:27;;;;;;;22.87;17.43;;;8.70;99.90;;;;;;5016691;28;20083;-78
2023/04/21 01:32:53;;;;;;;22.80;16.13;;;8.70;99.90;;;;;;5008832;28;20042;-77
2023/04/21 01:35:19;;;;;;;26.63;17.43;;;8.70;99.90;;;;;;4981137;28;20041;-78
2023/04/21 01:37:45;;;;;;;23.37;16.80;;;8.60;99.90;;;;;;4981279;28;20045;-77
2023/04/21 01:40:11;;;;;;;22.13;16.97;;;8.60;99.90;;;;;;5014696;28;20049;-77
2023/04/21 01:42:39;;;;;;;25.57;16.23;;;8.60;99.90;;;;;;5010806;28;20505;-77
2023/04/21 01:45:06;;;;;;;23.50;16.43;;;8.60;99.90;;;;;;4994710;28;20049;-76
2023/04/21 01:47:32;;;;;;;22.10;16.33;;;8.60;99.90;;;;;;5014419;28;20052;-77
2023/04/21 01:49:57;;;;;;;20.43;16.27;;;8.60;99.90;;;;;;5012027;28;20045;-77
2023/04/21 01:52:23;;;;;;;25.10;16.50;;;8.60;99.90;;;;;;5004476;28;20444;-77
2023/04/21 01:54:49;;;;;;;24.43;16.33;;;8.60;99.90;;;;;;4991913;28;20046;-77
2023/04/21 01:57:16;;;;;;;22.47;16.40;;;8.50;99.90;;;;;;5008839;28;20371;-77
2023/04/21 01:59:42;;;;;;;23.87;16.40;;;8.60;99.90;;;;;;5007030;28;20095;-77
2023/04/21 02:02:08;;;;;;;23.03;16.33;;;8.60;99.90;;;;;;4981664;28;20046;-76
2023/04/21 02:04:34;;;;;;;21.50;15.50;;;8.50;99.90;;;;;;5017194;28;20409;-77
2023/04/21 02:07:00;;;;;;;20.73;16.40;;;8.50;99.90;;;;;;5014021;28;20069;-77
2023/04/21 02:09:26;;;;;;;24.87;16.13;;;8.50;99.90;;;;;;4975620;28;20084;-76
2023/04/21 02:11:54;;;;;;;26.90;16.17;;;8.50;99.90;;;;;;4995939;28;20128;-76
2023/04/21 02:14:19;;;;;;;21.77;16.30;;;8.40;99.90;;;;;;5012878;28;20433;-76
2023/04/21 02:16:45;;;;;;;25.07;16.73;;;8.40;99.90;;;;;;5013006;28;20128;-76
2023/04/21 02:19:11;;;;;;;23.97;15.40;;;8.40;99.90;;;;;;5014939;28;20038;-77
2023/04/21 02:21:36;;;;;;;22.27;16.17;;;8.40;99.90;;;;;;5008733;28;20049;-76
2023/04/21 02:24:02;;;;;;;22.80;16.17;;;8.40;99.90;;;;;;4996199;28;20678;-76
2023/04/21 02:26:28;;;;;;;24.23;16.30;;;8.40;99.90;;;;;;4982178;28;20041;-76
2023/04/21 02:28:54;;;;;;;20.37;15.63;;;8.50;99.90;;;;;;4977164;28;20084;-76
2023/04/21 02:31:19;;;;;;;20.50;16.37;;;8.50;99.90;;;;;;5010891;28;20448;-76
2023/04/21 02:33:45;;;;;;;25.23;16.33;;;8.50;99.90;;;;;;5010227;28;20061;-76
2023/04/21 02:36:11;;;;;;;22.47;15.73;;;8.50;99.90;;;;;;4996742;28;20057;-77
2023/04/21 02:38:37;;;;;;;20.67;15.33;;;8.50;99.90;;;;;;5011146;28;20073;-76
2023/04/21 02:41:04;;;;;;;23.33;16.30;;;8.50;99.90;;;;;;5014569;28;20074;-76
2023/04/21 02:43:30;;;;;;;20.57;14.93;;;8.50;99.90;;;;;;5009366;28;20143;-76
2023/04/21 02:45:55;;;;;;;22.97;15.20;;;8.50;99.90;;;;;;4995545;28;20073;-76
2023/04/21 02:48:24;;;;;;;25.93;15.93;;;8.40;99.90;;;;;;5013180;28;20057;-76
2023/04/21 02:50:52;;;;;;;25.07;16.30;;;8.40;99.90;;;;;;4977388;28;20046;-76
2023/04/21 02:53:18;;;;;;;22.67;15.90;;;8.40;99.90;;;;;;4987817;28;20084;-77
2023/04/21 02:55:44;;;;;;;24.40;15.47;;;8.30;99.90;;;;;;4984962;28;20123;-76
2023/04/21 02:58:10;;;;;;;21.93;15.87;;;8.40;99.90;;;;;;5004055;28;20451;-76
2023/04/21 03:00:36;;;;;;;21.90;16.47;;;8.40;99.90;;;;;;5005307;28;20042;-76
2023/04/21 03:03:02;;;;;;;19.70;15.50;;;8.30;99.90;;;;;;5004895;28;20061;-76
2023/04/21 03:05:28;;;;;;;19.33;14.80;;;8.30;99.90;;;;;;4992393;28;20678;-76
2023/04/21 03:07:53;;;;;;;24.00;15.87;;;8.30;99.90;;;;;;4995527;28;20029;-77
2023/04/21 03:10:20;;;;;;;21.37;15.37;;;8.40;99.90;;;;;;4999791;28;20115;-76
2023/04/21 03:12:45;;;;;;;21.93;16.13;;;8.30;99.90;;;;;;4979240;28;20394;-77
2023/04/21 03:15:13;;;;;;;22.57;16.50;;;8.40;99.90;;;;;;5011350;28;20046;-77
2023/04/21 03:17:42;;;;;;;24.10;16.50;;;8.40;99.90;;;;;;4998264;28;20068;-77
2023/04/21 03:20:09;;;;;;;22.80;16.47;;;8.40;99.90;;;;;;4994648;28;20053;-76
2023/04/21 03:22:35;;;;;;;24.87;16.97;;;8.40;99.90;;;;;;4998990;28;20489;-77
2023/04/21 03:25:01;;;;;;;22.40;16.70;;;8.40;99.90;;;;;;4993254;28;20048;-76
2023/04/21 03:27:27;;;;;;;25.90;16.50;;;8.40;99.90;;;;;;5012277;28;20041;-77
2023/04/21 03:29:52;;;;;;;24.07;16.67;;;8.30;99.90;;;;;;4993621;28;20033;-78
2023/04/21 03:32:18;;;;;;;24.43;16.77;;;8.40;99.90;;;;;;5013969;28;20490;-77
2023/04/21 03:34:43;;;;;;;23.87;16.43;;;8.40;99.90;;;;;;5012657;28;20034;-76
2023/04/21 03:37:09;;;;;;;24.43;17.73;;;8.40;99.90;;;;;;4976193;28;20056;-77
2023/04/21 03:39:35;;;;;;;23.67;16.43;;;8.40;99.90;;;;;;5012579;28;21609;-77
2023/04/21 03:42:00;;;;;;;24.47;17.80;;;8.40;99.90;;;;;;4993806;28;20129;-77
2023/04/21 03:44:27;;;;;;;24.53;18.17;;;8.40;99.90;;;;;;5010668;28;20512;-77
2023/04/21 03:46:54;;;;;;;25.40;18.33;;;8.30;99.90;;;;;;5014132;28;20120;-76
2023/04/21 03:49:20;;;;;;;25.23;17.77;;;8.20;99.90;;;;;;4994544;28;20497;-77
2023/04/21 03:51:45;;;;;;;26.10;17.77;;;8.20;99.90;;;;;;5011472;28;20072;-77
2023/04/21 03:54:11;;;;;;;25.50;17.33;;;8.20;99.90;;;;;;4993527;28;20391;-77
2023/04/21 03:56:37;;;;;;;24.10;17.47;;;8.10;99.90;;;;;;5016522;28;20120;-77
2023/04/21 03:59:03;;;;;;;29.30;18.50;;;8.10;99.90;;;;;;5012834;28;20456;-78
2023/04/21 04:01:29;;;;;;;29.63;18.83;;;8.10;99.90;;;;;;4996477;28;20049;-76
2023/04/21 04:03:54;;;;;;;30.87;18.17;;;8.10;99.90;;;;;;5009969;28;20401;-77
2023/04/21 04:06:20;;;;;;;27.70;18.03;;;8.00;99.90;;;;;;5005660;28;20137;-76
2023/04/21 04:08:46;;;;;;;25.30;18.87;;;8.10;99.90;;;;;;4997115;28;20057;-77
2023/04/21 04:11:11;;;;;;;26.40;18.50;;;8.10;99.90;;;;;;5010258;28;20046;-77
2023/04/21 04:13:37;;;;;;;27.20;18.70;;;8.00;99.90;;;;;;4988695;28;20043;-77
2023/04/21 04:16:03;;;;;;;27.30;18.87;;;8.00;99.90;;;;;;4990644;28;20038;-76
2023/04/21 04:18:29;;;;;;;23.90;17.47;;;8.00;99.90;;;;;;4993266;28;20401;-77
2023/04/21 04:20:54;;;;;;;28.73;18.00;;;8.00;99.90;;;;;;5010375;28;20040;-77
2023/04/21 04:23:20;;;;;;;23.33;17.63;;;8.00;99.90;;;;;;4993853;28;20048;-77
2023/04/21 04:25:47;;;;;;;24.50;18.60;;;8.00;99.90;;;;;;4976273;28;20126;-77
2023/04/21 04:28:14;;;;;;;24.93;17.23;;;8.00;99.90;;;;;;4992839;28;20034;-77
2023/04/21 04:30:40;;;;;;;26.93;18.27;;;8.00;99.90;;;;;;4999105;28;20048;-77
2023/04/21 04:33:06;;;;;;;26.47;17.70;;;8.00;99.90;;;;;;4995955;28;20116;-77
2023/04/21 04:35:32;;;;;;;22.60;18.27;;;7.90;99.90;;;;;;4994188;28;20132;-77
2023/04/21 04:37:57;;;;;;;23.93;17.23;;;7.90;99.90;;;;;;5008377;28;20038;-76
2023/04/21 04:40:24;;;;;;;24.20;17.17;;;8.00;99.90;;;;;;5009706;28;20058;-77
2023/04/21 04:42:50;;;;;;;30.47;18.83;;;8.00;99.90;;;;;;5009204;28;20042;-77
2023/04/21 04:45:16;;;;;;;22.90;17.27;;;8.00;99.90;;;;;;4977470;28;20536;-76
2023/04/21 04:47:43;;;;;;;27.47;18.17;;;8.00;99.90;;;;;;5012485;28;20505;-76
2023/04/21 04:50:09;;;;;;;24.43;16.80;;;8.00;99.90;;;;;;4994137;28;20124;-76
2023/04/21 04:52:34;;;;;;;22.87;16.90;;;8.00;99.90;;;;;;4979683;28;20211;-77
2023/04/21 04:55:00;;;;;;;23.50;16.97;;;8.00;99.90;;;;;;5014558;28;20049;-76
2023/04/21 04:57:26;;;;;;;23.63;17.20;;;8.00;99.90;;;;;;4998650;28;20053;-76
2023/04/21 04:59:55;;;;;;;24.53;17.13;;;8.10;99.90;;;;;;4999094;28;20517;-77
2023/04/21 05:02:22;;;;;;;25.17;16.80;;;8.10;99.90;;;;;;5012144;28;20060;-77
2023/04/21 05:04:49;;;;;;;24.00;16.73;;;8.20;99.90;;;;;;4985961;28;20045;-76
2023/04/21 05:07:15;;;;;;;23.40;17.07;;;8.20;99.90;;;;;;4992618;28;20182;-77
2023/04/21 05:09:40;;;;;;;21.70;16.20;;;8.20;99.90;;;;;;5008335;28;20038;-76
2023/04/21 05:12:06;;;;;;;25.13;17.20;;;8.20;99.90;;;;;;5010673;28;20034;-77
2023/04/21 05:14:32;;;;;;;27.10;17.00;;;8.30;99.90;;;;;;4990091;28;20041;-77
2023/04/21 05:16:58;;;;;;;21.67;16.10;;;8.30;99.90;;;;;;4994442;28;20422;-76
2023/04/21 05:19:24;;;;;;;22.00;14.97;;;8.30;99.90;;;;;;4997237;28;20037;-76
2023/04/21 05:21:50;;;;;;;21.90;15.03;;;8.40;99.90;;;;;;5015377;28;20501;-76
2023/04/21 05:24:21;;;;;;;23.53;16.17;;;8.40;99.90;;;;;;4996641;28;20050;-76
2023/04/21 05:26:47;;;;;;;22.92;15.55;;;8.40;99.90;;;;;;5013065;28;20059;-76
2023/04/21 05:29:13;;;;;;;24.00;15.60;;;8.50;99.90;;;;;;4994074;28;20046;-76
2023/04/21 05:31:39;;;;;;;22.37;15.53;;;8.50;99.90;;;;;;4983582;28;20048;-76
2023/04/21 05:34:05;;;;;;;24.37;15.07;;;8.60;99.90;;;;;;4996393;28;20041;-76
2023/04/21 05:36:31;;;;;;;21.43;15.53;;;8.60;99.90;;;;;;5014462;28;20049;-76
2023/04/21 05:38:57;;;;;;;21.00;15.80;;;8.60;99.90;;;;;;4995956;28;20097;-76
2023/04/21 05:41:22;;;;;;;22.50;15.60;;;8.70;99.90;;;;;;4977239;28;20046;-76
2023/04/21 05:43:48;;;;;;;20.90;14.80;;;8.70;99.90;;;;;;4979803;28;20038;-76
2023/04/21 05:46:14;;;;;;;18.80;14.97;;;8.80;99.90;;;;;;5014720;28;20088;-76
2023/04/21 05:48:40;;;;;;;19.73;14.13;;;8.80;99.90;;;;;;5005858;28;20050;-76
2023/04/21 05:51:10;;;;;;;24.93;14.97;;;8.90;99.90;;;;;;5007984;28;20082;-76
2023/04/21 05:53:37;;;;;;;19.70;14.37;;;8.90;99.90;;;;;;5005028;28;20108;-76
2023/04/21 05:56:03;;;;;;;22.67;15.30;;;9.00;99.90;;;;;;5007039;28;20054;-76
2023/04/21 05:58:28;;;;;;;21.43;14.47;;;9.10;99.90;;;;;;5029997;28;20045;-76
2023/04/21 06:00:54;;;;;;;20.47;14.10;;;9.10;99.90;;;;;;5014076;28;20507;-76
2023/04/21 06:03:20;;;;;;;23.27;15.77;;;9.20;99.90;;;;;;5026087;28;20038;-76
2023/04/21 06:05:46;;;;;;;20.63;13.57;;;9.20;99.90;;;;;;5013741;28;20053;-76
2023/04/21 06:08:12;;;;;;;23.80;15.33;;;9.30;99.90;;;;;;5017387;28;20040;-76
2023/04/21 06:10:37;;;;;;;20.40;14.80;;;9.40;99.90;;;;;;5004912;28;20040;-76
2023/04/21 06:13:03;;;;;;;18.30;14.43;;;9.40;99.90;;;;;;5010028;28;20038;-76
2023/04/21 06:15:29;;;;;;;21.00;14.50;;;9.50;99.90;;;;;;4982032;28;20140;-76
2023/04/21 06:17:54;;;;;;;25.07;14.73;;;9.60;99.90;;;;;;4969084;28;20045;-76
2023/04/21 06:20:20;;;;;;;17.27;13.10;;;9.60;99.90;;;;;;4997658;28;20117;-76
2023/04/21 06:22:46;;;;;;;18.47;13.83;;;9.70;99.90;;;;;;5008959;28;20471;-76
2023/04/21 06:25:11;;;;;;;19.03;13.70;;;9.80;99.90;;;;;;5012665;28;20644;-76
2023/04/21 06:27:37;;;;;;;20.60;13.43;;;9.90;99.90;;;;;;5002879;28;20045;-76
2023/04/21 06:30:03;;;;;;;17.13;13.77;;;9.90;99.90;;;;;;4989725;28;20128;-76
2023/04/21 06:32:29;;;;;;;19.03;13.50;;;10.00;99.90;;;;;;5029238;28;20497;-76
2023/04/21 06:34:54;;;;;;;18.67;13.93;;;10.10;99.90;;;;;;5007889;28;20057;-76
2023/04/21 06:37:20;;;;;;;19.03;14.07;;;10.20;99.90;;;;;;5010581;28;20433;-76
2023/04/21 06:39:46;;;;;;;17.23;13.53;;;10.30;99.90;;;;;;5018960;28;20080;-76
2023/04/21 06:42:11;;;;;;;16.87;13.33;;;10.40;99.90;;;;;;5022594;28;20041;-76
2023/04/21 06:44:37;;;;;;;20.10;13.73;;;10.50;99.90;;;;;;4996919;28;20329;-76
2023/04/21 06:47:03;;;;;;;18.57;13.20;;;10.60;99.90;;;;;;5018240;28;20042;-76
2023/04/21 06:49:29;;;;;;;18.83;12.93;;;10.60;99.90;;;;;;5003923;28;20053;-76
2023/04/21 06:51:55;;;;;;;19.53;12.70;;;10.80;99.90;;;;;;5019619;28;20057;-76
2023/04/21 06:54:21;;;;;;;17.10;13.00;;;10.80;99.90;;;;;;5000714;28;20045;-76
2023/04/21 06:56:46;;;;;;;20.03;12.80;;;10.90;99.90;;;;;;4988580;28;20157;-76
2023/04/21 06:59:12;;;;;;;22.27;13.80;;;11.00;99.90;;;;;;5029104;28;20057;-76
2023/04/21 07:01:38;;;;;;;15.63;13.17;;;11.10;99.90;;;;;;5012721;28;20144;-76
2023/04/21 07:04:05;;;;;;;18.40;12.60;;;11.20;99.90;;;;;;5020555;28;20432;-76
2023/04/21 07:06:37;;;;;;;16.10;12.37;;;11.30;99.90;;;;;;5029311;28;20075;-76
2023/04/21 07:09:02;;;;;;;17.23;13.17;;;11.40;99.90;;;;;;5023369;28;20054;-76
2023/04/21 07:11:28;;;;;;;17.70;12.67;;;11.40;99.90;;;;;;5003610;28;20093;-76
2023/04/21 07:13:54;;;;;;;17.07;12.23;;;11.40;99.90;;;;;;5028491;28;20076;-76
2023/04/21 07:16:20;;;;;;;17.13;12.87;;;11.30;99.90;;;;;;5010510;28;20072;-76
2023/04/21 07:18:46;;;;;;;20.63;12.37;;;11.40;99.90;;;;;;5021966;28;20461;-76
2023/04/21 07:21:11;;;;;;;18.97;12.30;;;11.40;99.90;;;;;;5012547;28;20045;-76
2023/04/21 07:23:37;;;;;;;18.30;12.27;;;11.40;99.90;;;;;;5011750;28;20124;-76
2023/04/21 07:26:03;;;;;;;17.57;11.97;;;11.50;99.90;;;;;;4992828;28;20081;-75
2023/04/21 07:28:28;;;;;;;18.60;12.17;;;11.60;99.90;;;;;;4998595;28;20037;-76
2023/04/21 07:30:54;;;;;;;17.80;11.90;;;11.80;99.90;;;;;;5007883;28;20038;-76
2023/04/21 07:33:20;;;;;;;19.40;12.43;;;12.00;99.90;;;;;;5017208;28;20041;-76
2023/04/21 07:35:45;;;;;;;18.93;12.40;;;12.10;99.90;;;;;;5010662;28;20053;-76
2023/04/21 07:38:11;;;;;;;20.97;12.27;;;12.20;99.90;;;;;;5019986;28;20129;-76
2023/04/21 07:40:37;;;;;;;21.10;11.83;;;12.20;99.90;;;;;;4982338;28;20125;-77
2023/04/21 07:43:02;;;;;;;15.90;12.13;;;12.20;99.90;;;;;;4996300;28;20046;-76
2023/04/21 07:45:28;;;;;;;18.00;12.43;;;12.10;99.90;;;;;;5017315;28;20049;-77
2023/04/21 07:47:54;;;;;;;19.20;12.20;;;12.20;99.90;;;;;;5018290;28;20195;-76
2023/04/21 07:50:19;;;;;;;18.70;12.73;;;12.20;99.90;;;;;;5025867;28;20049;-77
2023/04/21 07:52:46;;;;;;;18.97;12.10;;;12.30;99.90;;;;;;5001783;28;20497;-76
2023/04/21 07:55:12;;;;;;;15.00;11.70;;;12.40;99.90;;;;;;5029766;28;20400;-76
2023/04/21 07:57:39;;;;;;;16.95;11.48;;;12.40;99.90;;;;;;4988779;28;20464;-76
2023/04/21 08:00:05;;;;;;;19.25;12.25;;;12.50;99.90;;;;;;4995261;28;20046;-76
2023/04/21 08:02:31;;;;;;;16.05;11.43;;;12.60;99.90;;;;;;4973925;28;20076;-77
2023/04/21 08:04:57;;;;;;;16.05;12.07;;;12.70;99.90;;;;;;5011886;28;20064;-76
2023/04/21 08:07:24;;;;;;;17.93;12.10;;;12.80;99.90;;;;;;4995463;28;20041;-76
2023/04/21 08:09:49;;;;;;;17.00;11.55;;;12.90;99.90;;;;;;5028478;28;20041;-76
2023/04/21 08:12:18;;;;;;;16.10;11.50;;;13.10;99.90;;;;;;5029711;28;20049;-77
2023/04/21 08:14:44;;;;;;;17.60;12.00;;;13.30;99.90;;;;;;5013657;28;20041;-76
2023/04/21 08:17:09;;;;;;;15.32;12.02;;;13.50;99.90;;;;;;5028114;28;20380;-77
2023/04/21 08:19:35;;;;;;;18.65;11.75;;;13.80;99.90;;;;;;5010610;28;20532;-76
2023/04/21 08:22:01;;;;;;;19.63;12.38;;;13.90;99.90;;;;;;4996979;28;20527;-76
2023/04/21 08:24:26;;;;;;;15.48;11.70;;;13.90;99.90;;;;;;4992655;28;20456;-77
2023/04/21 08:26:52;;;;;;;18.63;11.23;;;14.10;99.90;;;;;;5021860;28;20073;-76
2023/04/21 08:29:18;;;;;;;18.25;11.35;;;14.00;99.90;;;;;;4995165;28;20049;-76
2023/04/21 08:31:44;;;;;;;16.80;11.23;;;14.00;99.90;;;;;;5029681;28;20057;-77
2023/04/21 08:34:09;;;;;;;15.52;11.30;;;14.20;99.90;;;;;;5007014;28;20056;-76
2023/04/21 08:36:36;;;;;;;22.23;12.18;;;14.20;99.90;;;;;;5015209;28;20050;-77
2023/04/21 08:39:02;;;;;;;14.65;10.82;;;14.40;99.90;;;;;;5023471;28;20076;-77
2023/04/21 08:41:27;;;;;;;20.65;11.93;;;14.50;99.90;;;;;;5022270;28;20045;-77
2023/04/21 08:43:54;;;;;;;16.58;11.50;;;14.60;99.90;;;;;;4995693;28;20038;-77
2023/04/21 08:46:21;;;;;;;19.50;11.52;;;14.60;99.90;;;;;;5012365;28;20081;-76
2023/04/21 08:48:47;;;;;;;17.58;11.20;;;14.60;99.90;;;;;;5016337;28;20044;-76
2023/04/21 08:51:19;;;;;;;14.82;10.98;;;14.60;99.90;;;;;;5003426;28;20045;-76
2023/04/21 08:53:45;;;;;;;17.92;11.63;;;14.60;99.90;;;;;;4989233;28;20076;-77
2023/04/21 08:56:11;;;;;;;18.80;12.10;;;14.60;99.90;;;;;;5031482;28;20081;-76
2023/04/21 08:58:38;;;;;;;13.85;11.07;;;14.60;99.90;;;;;;5032859;28;20064;-77
2023/04/21 09:01:04;;;;;;;14.48;11.88;;;14.60;99.90;;;;;;5032310;28;20117;-76
2023/04/21 09:03:30;;;;;;;14.57;10.95;;;14.60;99.90;;;;;;4998771;28;20496;-77
2023/04/21 09:06:01;;;;;;;20.30;11.25;;;14.60;99.90;;;;;;5011920;28;20053;-76
2023/04/21 09:08:28;;;;;;;17.97;11.00;;;14.70;99.90;;;;;;5016365;28;20332;-77
2023/04/21 09:10:55;;;;;;;14.15;10.60;;;14.80;99.90;;;;;;5033442;28;20272;-79
2023/04/21 09:13:27;;;;;;;16.35;11.25;;;14.90;99.90;;;;;;5031256;28;20183;-79
2023/04/21 09:15:53;;;;;;;19.70;11.20;;;15.10;99.90;;;;;;5013664;28;20482;-80
2023/04/21 09:18:23;;;;;;;16.40;10.63;;;15.10;99.90;;;;;;5006437;28;20122;-80
2023/04/21 09:20:51;;;;;;;18.60;11.75;;;15.30;99.90;;;;;;5020541;28;20385;-80
2023/04/21 09:23:19;;;;;;;19.67;11.57;;;15.30;99.90;;;;;;5032211;28;20049;-79
2023/04/21 09:25:45;;;;;;;16.65;10.80;;;15.50;99.90;;;;;;5024566;28;20037;-80
2023/04/21 09:28:13;;;;;;;16.80;11.05;;;15.50;99.90;;;;;;5028577;28;20544;-80
2023/04/21 09:30:42;;;;;;;15.90;10.93;;;15.50;99.90;;;;;;5016098;28;20054;-80
2023/04/21 09:33:15;;;;;;;19.48;10.93;;;15.50;99.90;;;;;;4996415;28;20070;-80
2023/04/21 09:35:41;;;;;;;19.85;11.20;;;15.50;99.90;;;;;;5030434;28;20079;-80
2023/04/21 09:38:11;;;;;;;15.77;11.50;;;15.50;99.90;;;;;;4998901;28;20101;-80
2023/04/21 09:40:37;;;;;;;16.30;10.57;;;15.40;99.90;;;;;;5016893;28;20038;-80
2023/04/21 09:43:03;;;;;;;15.93;10.77;;;15.50;99.90;;;;;;5023459;28;20489;-80
2023/04/21 09:45:29;;;;;;;15.38;11.10;;;15.60;99.90;;;;;;5012200;28;20041;-80
2023/04/21 09:47:57;;;;;;;13.73;11.07;;;15.80;99.90;;;;;;5012604;28;20037;-80
2023/04/21 09:50:24;;;;;;;16.38;11.02;;;15.90;99.90;;;;;;5021369;28;20121;-80
2023/04/21 09:52:52;;;;;;;16.30;11.15;;;16.10;99.90;;;;;;5031881;28;20041;-80
2023/04/21 09:55:21;;;;;;;14.05;10.88;;;16.20;99.90;;;;;;5018091;28;20057;-77
2023/04/21 09:58:08;;;;;;;18.30;10.95;;;16.40;99.90;;;;;;5002588;28;20587;-77
2023/04/21 10:00:38;;;;;;;23.83;11.23;;;16.50;99.90;;;;;;5028848;28;20049;-80
2023/04/21 10:03:09;;;;;;;20.13;11.43;;;16.70;99.90;;;;;;5016910;28;20044;-80
2023/04/21 10:05:35;;;;;;;19.60;10.90;;;16.80;99.90;;;;;;5031795;28;20076;-77
2023/04/21 10:08:01;;;;;;;20.13;11.07;;;17.20;99.90;;;;;;4997495;28;20048;-77
2023/04/21 10:10:34;;;;;;;15.95;11.38;;;17.50;99.90;;;;;;5010172;28;20049;-77
2023/04/21 10:13:00;;;;;;;14.55;11.18;;;17.80;99.90;;;;;;5017874;28;20432;-77
2023/04/21 10:15:31;;;;;;;17.65;10.95;;;18.10;99.90;;;;;;5030160;28;20103;-77
2023/04/21 10:18:14;;;;;;;12.93;11.40;;;18.20;99.90;;;;;;5026612;28;20046;-77
2023/04/21 10:21:02;;;;;;;16.73;11.27;;;18.20;99.90;;;;;;4996914;28;20043;-78
2023/04/21 10:23:32;;;;;;;16.92;11.48;;;18.20;99.90;;;;;;5011320;28;20450;-77
2023/04/21 10:26:30;;;;;;;17.42;11.38;;;18.20;99.90;;;;;;5009244;28;20113;-81
2023/04/21 10:28:58;;;;;;;16.52;11.43;;;18.40;99.90;;;;;;5004283;28;20429;-80
2023/04/21 10:31:33;;;;;;;15.25;11.38;;;18.50;99.90;;;;;;5012692;28;20045;-80
2023/04/21 10:34:06;;;;;;;15.77;11.77;;;18.60;99.90;;;;;;5012673;28;20041;-80
2023/04/21 10:36:47;;;;;;;14.50;11.00;;;18.70;99.90;;;;;;5013930;28;20123;-81
2023/04/21 10:39:27;;;;;;;17.63;11.43;;;18.70;99.90;;;;;;5014713;28;20117;-80
2023/04/21 10:42:12;;;;;;;16.20;11.02;;;18.60;99.90;;;;;;5028170;28;20037;-80
2023/04/21 10:44:41;;;;;;;18.40;11.32;;;18.50;99.90;;;;;;5030858;28;20037;-79
2023/04/21 10:47:07;;;;;;;18.42;11.23;;;18.60;99.90;;;;;;5030084;28;20077;-81
2023/04/21 10:49:37;;;;;;;17.67;11.18;;;18.90;99.90;;;;;;4996590;28;20073;-80
2023/04/21 10:52:08;;;;;;;15.60;9.75;;;19.20;99.90;;;;;;5021212;28;20540;-80
2023/04/21 10:55:05;;;;;;;15.45;9.55;;;19.40;99.90;;;;;;5030409;28;20052;-80
2023/04/21 10:57:34;;;;;;;13.93;9.75;;;19.50;99.90;;;;;;5011847;28;20056;-80
2023/04/21 11:00:00;;;;;;;14.20;10.00;;;19.60;99.90;;;;;;5018537;28;20053;-81
2023/04/21 11:02:26;;;;;;;12.30;9.25;;;19.50;99.90;;;;;;5001796;28;20383;-80
2023/04/21 11:04:59;;;;;;;14.32;9.43;;;19.50;99.90;;;;;;5031000;28;20359;-80
2023/04/21 11:07:26;;;;;;;11.50;9.32;;;19.50;99.90;;;;;;5014598;28;20053;-81
2023/04/21 11:10:00;;;;;;;14.90;8.88;;;19.60;99.90;;;;;;4983872;28;20107;-80
2023/04/21 11:12:31;;;;;;;13.15;9.05;;;19.70;97.70;;;;;;5014557;28;20205;-80
2023/04/21 11:14:57;;;;;;;13.88;9.20;;;19.90;99.90;;;;;;5007478;28;20102;-81
2023/04/21 11:17:54;;;;;;;12.90;8.45;;;19.90;99.90;;;;;;5020238;28;20058;-81
2023/04/21 11:20:38;;;;;;;12.95;8.25;;;20.00;93.90;;;;;;4949199;28;20047;-83
2023/04/21 11:23:04;;;;;;;16.83;9.25;;;20.20;99.80;;;;;;5004666;28;20104;-82
2023/04/21 11:25:29;;;;;;;12.40;7.68;;;20.30;92.30;;;;;;5001613;28;20067;-83
2023/04/21 11:27:58;;;;;;;11.77;7.60;;;20.50;92.60;;;;;;5004566;28;20045;-82
2023/04/21 11:30:34;;;;;;;10.45;6.88;;;20.40;84.00;;;;;;5006905;28;20440;-83
2023/04/21 11:33:00;;;;;;;8.30;7.05;;;20.10;80.30;;;;;;5030234;28;20041;-82
2023/04/21 11:35:26;;;;;;;7.93;7.13;;;19.80;84.30;;;;;;5031314;28;20350;-83
2023/04/21 11:37:51;;;;;;;14.55;7.00;;;19.60;87.60;;;;;;5029095;28;20052;-83
2023/04/21 11:40:18;;;;;;;12.93;7.20;;;19.40;86.90;;;;;;5016702;28;20046;-83
2023/04/21 11:42:44;;;;;;;9.57;6.68;;;19.50;85.30;;;;;;5028431;28;20038;-82
2023/04/21 11:45:17;;;;;;;12.27;6.82;;;19.50;82.20;;;;;;5013825;28;20504;-82
2023/04/21 11:47:43;;;;;;;11.35;6.85;;;19.60;78.80;;;;;;5013202;28;20128;-83
2023/04/21 11:50:09;;;;;;;9.35;6.35;;;19.80;81.50;;;;;;5009435;28;20124;-83
2023/04/21 11:52:36;;;;;;;11.65;7.00;;;19.70;80.40;;;;;;5005413;28;20505;-83
2023/04/21 11:55:10;;;;;;;9.85;6.30;;;19.70;79.30;;;;;;5004103;28;20042;-83
2023/04/21 11:57:39;;;;;;;11.57;6.00;;;19.90;79.60;;;;;;5001160;28;20053;-83
2023/04/21 12:00:07;;;;;;;13.70;6.35;;;19.90;78.40;;;;;;5009772;28;20042;-83
2023/04/21 12:02:34;;;;;;;7.63;5.35;;;20.00;77.40;;;;;;5035824;28;20155;-82
2023/04/21 12:05:05;;;;;;;11.40;5.65;;;20.00;74.40;;;;;;5033966;28;20037;-83
2023/04/21 12:07:36;;;;;;;8.98;5.75;;;20.10;74.00;;;;;;5000471;28;20517;-82
2023/04/21 12:10:10;;;;;;;7.63;6.20;;;20.40;73.50;;;;;;5024728;28;20090;-81
2023/04/21 12:12:41;;;;;;;9.88;5.60;;;20.70;71.90;;;;;;5020303;28;20381;-82
2023/04/21 12:15:08;;;;;;;8.80;5.50;;;21.00;69.00;;;;;;5035930;28;20045;-83
2023/04/21 12:17:47;;;;;;;9.60;6.07;;;21.20;70.80;;;;;;5018802;28;20199;-84
2023/04/21 12:20:24;;;;;;;12.25;5.50;;;21.40;68.60;;;;;;5035852;28;20600;-83
2023/04/21 12:22:51;;;;;;;10.63;5.72;;;21.40;70.30;;;;;;5014347;28;20046;-82
2023/04/21 12:25:16;;;;;;;10.30;5.60;;;21.20;68.00;;;;;;5032269;28;20042;-82
2023/04/21 12:27:50;;;;;;;10.63;5.70;;;21.10;67.10;;;;;;5018733;28;20507;-82
2023/04/21 12:30:17;;;;;;;8.60;5.20;;;21.00;66.20;;;;;;5016873;28;20038;-81
2023/04/21 12:32:43;;;;;;;10.93;5.70;;;20.80;66.70;;;;;;5007307;28;20037;-82